sensor_id;sensor_type;location;lat;lon;timestamp;P1;durP1;ratioP1;P2;durP2;ratioP2
26325;SDS011;14032;52.510;7.342;2023-02-18T00:02:09;20.30;;;4.07;;
26325;SDS011;14032;52.510;7.342;2023-02-18T00:04:34;22.23;;;3.63;;
26325;SDS011;14032;52.510;7.342;2023-02-18T00:07:00;18.38;;;3.40;;
26325;SDS011;14032;52.510;7.342;2023-02-18T00:09:25;20.95;;;4.55;;
26325;SDS011;14032;52.510;7.342;2023-02-18T00:11:51;18.50;;;3.72;;
26325;SDS011;14032;52.510;7.342;2023-02-18T00:14:18;22.17;;;4.43;;
26325;SDS011;14032;52.510;7.342;2023-02-18T00:16:44;17.80;;;3.83;;
26325;SDS011;14032;52.510;7.342;2023-02-18T00:19:12;19.15;;;3.92;;
26325;SDS011;14032;52.510;7.342;2023-02-18T00:21:39;19.13;;;4.10;;
26325;SDS011;14032;52.510;7.342;2023-02-18T00:24:05;20.67;;;5.07;;
26325;SDS011;14032;52.510;7.342;2023-02-18T00:26:32;16.40;;;4.07;;
26325;SDS011;14032;52.510;7.342;2023-02-18T00:28:59;20.00;;;4.30;;
26325;SDS011;14032;52.510;7.342;2023-02-18T00:31:26;28.10;;;5.40;;
26325;SDS011;14032;52.510;7.342;2023-02-18T00:33:56;23.38;;;4.60;;
26325;SDS011;14032;52.510;7.342;2023-02-18T00:36:25;25.98;;;5.00;;
26325;SDS011;14032;52.510;7.342;2023-02-18T00:38:52;25.38;;;5.30;;
26325;SDS011;14032;52.510;7.342;2023-02-18T00:41:20;18.70;;;4.70;;
26325;SDS011;14032;52.510;7.342;2023-02-18T00:43:48;15.75;;;4.57;;
26325;SDS011;14032;52.510;7.342;2023-02-18T00:46:14;24.88;;;5.13;;
26325;SDS011;14032;52.510;7.342;2023-02-18T00:48:40;29.38;;;5.38;;
26325;SDS011;14032;52.510;7.342;2023-02-18T00:51:06;22.52;;;4.28;;
26325;SDS011;14032;52.510;7.342;2023-02-18T00:53:32;25.75;;;4.43;;
26325;SDS011;14032;52.510;7.342;2023-02-18T00:55:58;22.67;;;5.05;;
26325;SDS011;14032;52.510;7.342;2023-02-18T00:58:24;23.42;;;4.75;;
26325;SDS011;14032;52.510;7.342;2023-02-18T01:00:50;24.83;;;5.00;;
26325;SDS011;14032;52.510;7.342;2023-02-18T01:03:16;19.60;;;4.50;;
26325;SDS011;14032;52.510;7.342;2023-02-18T01:05:42;19.30;;;5.35;;
26325;SDS011;14032;52.510;7.342;2023-02-18T01:08:08;22.77;;;4.80;;
26325;SDS011;14032;52.510;7.342;2023-02-18T01:10:34;21.73;;;4.75;;
26325;SDS011;14032;52.510;7.342;2023-02-18T01:13:01;22.40;;;5.82;;
26325;SDS011;14032;52.510;7.342;2023-02-18T01:15:28;22.05;;;5.60;;
26325;SDS011;14032;52.510;7.342;2023-02-18T01:17:54;23.40;;;5.50;;
26325;SDS011;14032;52.510;7.342;2023-02-18T01:20:20;20.33;;;5.55;;
26325;SDS011;14032;52.510;7.342;2023-02-18T01:22:46;24.40;;;6.68;;
26325;SDS011;14032;52.510;7.342;2023-02-18T01:25:12;19.45;;;6.07;;
26325;SDS011;14032;52.510;7.342;2023-02-18T01:27:38;28.27;;;6.50;;
26325;SDS011;14032;52.510;7.342;2023-02-18T01:30:04;28.15;;;7.10;;
26325;SDS011;14032;52.510;7.342;2023-02-18T01:32:31;26.55;;;6.20;;
26325;SDS011;14032;52.510;7.342;2023-02-18T01:35:02;24.08;;;7.20;;
26325;SDS011;14032;52.510;7.342;2023-02-18T01:37:30;29.52;;;8.68;;
26325;SDS011;14032;52.510;7.342;2023-02-18T01:39:55;34.83;;;9.88;;
26325;SDS011;14032;52.510;7.342;2023-02-18T01:42:22;31.02;;;11.02;;
26325;SDS011;14032;52.510;7.342;2023-02-18T01:44:50;33.08;;;13.07;;
26325;SDS011;14032;52.510;7.342;2023-02-18T01:47:16;38.42;;;15.82;;
26325;SDS011;14032;52.510;7.342;2023-02-18T01:49:42;38.95;;;14.45;;
26325;SDS011;14032;52.510;7.342;2023-02-18T01:52:13;38.92;;;17.42;;
26325;SDS011;14032;52.510;7.342;2023-02-18T01:54:43;37.55;;;18.67;;
26325;SDS011;14032;52.510;7.342;2023-02-18T01:57:17;49.60;;;21.52;;
26325;SDS011;14032;52.510;7.342;2023-02-18T01:59:47;58.53;;;23.55;;
26325;SDS011;14032;52.510;7.342;2023-02-18T02:02:16;47.17;;;23.27;;
26325;SDS011;14032;52.510;7.342;2023-02-18T02:04:44;50.92;;;27.00;;
26325;SDS011;14032;52.510;7.342;2023-02-18T02:07:10;59.10;;;26.17;;
26325;SDS011;14032;52.510;7.342;2023-02-18T02:09:36;49.65;;;27.88;;
26325;SDS011;14032;52.510;7.342;2023-02-18T02:23:40;67.07;;;35.15;;
26325;SDS011;14032;52.510;7.342;2023-02-18T02:26:41;69.57;;;36.72;;
26325;SDS011;14032;52.510;7.342;2023-02-18T02:38:13;75.57;;;38.97;;
26325;SDS011;14032;52.510;7.342;2023-02-18T02:41:12;69.68;;;37.22;;
26325;SDS011;14032;52.510;7.342;2023-02-18T02:52:20;69.13;;;38.33;;
26325;SDS011;14032;52.510;7.342;2023-02-18T02:54:50;73.72;;;38.28;;
26325;SDS011;14032;52.510;7.342;2023-02-18T02:59:43;64.82;;;36.47;;
26325;SDS011;14032;52.510;7.342;2023-02-18T03:02:23;71.82;;;37.33;;
26325;SDS011;14032;52.510;7.342;2023-02-18T03:04:57;59.70;;;36.08;;
26325;SDS011;14032;52.510;7.342;2023-02-18T03:07:32;66.28;;;37.00;;
26325;SDS011;14032;52.510;7.342;2023-02-18T03:21:25;46.95;;;27.08;;
26325;SDS011;14032;52.510;7.342;2023-02-18T03:24:04;73.82;;;37.92;;
26325;SDS011;14032;52.510;7.342;2023-02-18T03:26:41;74.38;;;40.08;;
26325;SDS011;14032;52.510;7.342;2023-02-18T03:29:11;76.55;;;40.25;;
26325;SDS011;14032;52.510;7.342;2023-02-18T03:31:39;80.35;;;41.10;;
26325;SDS011;14032;52.510;7.342;2023-02-18T03:34:12;85.13;;;41.53;;
26325;SDS011;14032;52.510;7.342;2023-02-18T03:36:40;78.20;;;39.88;;
26325;SDS011;14032;52.510;7.342;2023-02-18T03:39:08;78.82;;;40.45;;
26325;SDS011;14032;52.510;7.342;2023-02-18T03:41:37;81.70;;;39.80;;
26325;SDS011;14032;52.510;7.342;2023-02-18T03:44:04;91.13;;;40.70;;
26325;SDS011;14032;52.510;7.342;2023-02-18T03:46:32;88.28;;;40.38;;
26325;SDS011;14032;52.510;7.342;2023-02-18T03:48:59;83.80;;;40.95;;
26325;SDS011;14032;52.510;7.342;2023-02-18T03:51:24;83.32;;;39.25;;
26325;SDS011;14032;52.510;7.342;2023-02-18T03:53:50;77.70;;;38.92;;
26325;SDS011;14032;52.510;7.342;2023-02-18T03:56:17;85.40;;;40.28;;
26325;SDS011;14032;52.510;7.342;2023-02-18T03:58:43;95.30;;;40.22;;
26325;SDS011;14032;52.510;7.342;2023-02-18T04:01:08;89.78;;;40.95;;
26325;SDS011;14032;52.510;7.342;2023-02-18T04:03:34;87.60;;;38.08;;
26325;SDS011;14032;52.510;7.342;2023-02-18T04:06:00;86.15;;;38.63;;
26325;SDS011;14032;52.510;7.342;2023-02-18T04:08:25;93.28;;;39.70;;
26325;SDS011;14032;52.510;7.342;2023-02-18T04:10:51;76.47;;;36.00;;
26325;SDS011;14032;52.510;7.342;2023-02-18T04:13:16;92.05;;;38.38;;
26325;SDS011;14032;52.510;7.342;2023-02-18T04:15:43;85.82;;;35.75;;
26325;SDS011;14032;52.510;7.342;2023-02-18T04:18:10;90.20;;;37.20;;
26325;SDS011;14032;52.510;7.342;2023-02-18T04:20:36;78.72;;;35.10;;
26325;SDS011;14032;52.510;7.342;2023-02-18T04:23:02;79.00;;;34.70;;
26325;SDS011;14032;52.510;7.342;2023-02-18T04:25:29;79.05;;;36.08;;
26325;SDS011;14032;52.510;7.342;2023-02-18T04:27:55;83.30;;;34.55;;
26325;SDS011;14032;52.510;7.342;2023-02-18T04:30:20;78.90;;;34.97;;
26325;SDS011;14032;52.510;7.342;2023-02-18T04:32:46;72.30;;;34.22;;
26325;SDS011;14032;52.510;7.342;2023-02-18T04:35:12;82.50;;;35.58;;
26325;SDS011;14032;52.510;7.342;2023-02-18T04:37:37;81.05;;;34.67;;
26325;SDS011;14032;52.510;7.342;2023-02-18T04:40:03;77.22;;;33.83;;
26325;SDS011;14032;52.510;7.342;2023-02-18T04:42:29;74.53;;;34.15;;
26325;SDS011;14032;52.510;7.342;2023-02-18T04:44:54;79.18;;;34.08;;
26325;SDS011;14032;52.510;7.342;2023-02-18T04:47:20;75.53;;;34.63;;
26325;SDS011;14032;52.510;7.342;2023-02-18T04:49:46;72.65;;;32.92;;
26325;SDS011;14032;52.510;7.342;2023-02-18T04:52:11;72.38;;;32.17;;
26325;SDS011;14032;52.510;7.342;2023-02-18T04:54:37;68.55;;;32.03;;
26325;SDS011;14032;52.510;7.342;2023-02-18T04:57:03;69.25;;;32.42;;
26325;SDS011;14032;52.510;7.342;2023-02-18T04:59:28;64.18;;;32.70;;
26325;SDS011;14032;52.510;7.342;2023-02-18T05:01:54;66.28;;;30.67;;
26325;SDS011;14032;52.510;7.342;2023-02-18T05:04:19;64.88;;;31.23;;
26325;SDS011;14032;52.510;7.342;2023-02-18T05:06:45;65.78;;;30.63;;
26325;SDS011;14032;52.510;7.342;2023-02-18T05:09:11;70.97;;;30.85;;
26325;SDS011;14032;52.510;7.342;2023-02-18T05:11:37;66.50;;;29.52;;
26325;SDS011;14032;52.510;7.342;2023-02-18T05:14:03;68.53;;;30.73;;
26325;SDS011;14032;52.510;7.342;2023-02-18T05:16:29;69.15;;;31.45;;
26325;SDS011;14032;52.510;7.342;2023-02-18T05:18:54;61.67;;;30.77;;
26325;SDS011;14032;52.510;7.342;2023-02-18T05:21:20;64.88;;;29.30;;
26325;SDS011;14032;52.510;7.342;2023-02-18T05:23:45;70.72;;;30.42;;
26325;SDS011;14032;52.510;7.342;2023-02-18T05:26:11;67.15;;;29.20;;
26325;SDS011;14032;52.510;7.342;2023-02-18T05:28:37;69.10;;;29.60;;
26325;SDS011;14032;52.510;7.342;2023-02-18T05:31:02;67.13;;;28.65;;
26325;SDS011;14032;52.510;7.342;2023-02-18T05:33:28;58.25;;;26.58;;
26325;SDS011;14032;52.510;7.342;2023-02-18T05:35:55;62.95;;;25.15;;
26325;SDS011;14032;52.510;7.342;2023-02-18T05:38:21;56.22;;;24.88;;
26325;SDS011;14032;52.510;7.342;2023-02-18T05:40:46;60.13;;;26.48;;
26325;SDS011;14032;52.510;7.342;2023-02-18T05:43:12;61.05;;;25.92;;
26325;SDS011;14032;52.510;7.342;2023-02-18T05:45:38;52.60;;;24.00;;
26325;SDS011;14032;52.510;7.342;2023-02-18T05:48:04;50.65;;;23.50;;
26325;SDS011;14032;52.510;7.342;2023-02-18T05:50:30;53.25;;;23.17;;
26325;SDS011;14032;52.510;7.342;2023-02-18T05:52:56;55.65;;;22.58;;
26325;SDS011;14032;52.510;7.342;2023-02-18T05:55:21;46.03;;;21.10;;
26325;SDS011;14032;52.510;7.342;2023-02-18T05:57:48;54.55;;;21.80;;
26325;SDS011;14032;52.510;7.342;2023-02-18T06:00:14;45.90;;;21.25;;
26325;SDS011;14032;52.510;7.342;2023-02-18T06:02:40;47.17;;;20.83;;
26325;SDS011;14032;52.510;7.342;2023-02-18T06:05:07;50.15;;;19.20;;
26325;SDS011;14032;52.510;7.342;2023-02-18T06:07:32;38.95;;;17.75;;
26325;SDS011;14032;52.510;7.342;2023-02-18T06:09:58;37.58;;;16.83;;
26325;SDS011;14032;52.510;7.342;2023-02-18T06:12:24;42.03;;;16.60;;
26325;SDS011;14032;52.510;7.342;2023-02-18T06:14:50;41.78;;;16.45;;
26325;SDS011;14032;52.510;7.342;2023-02-18T06:17:15;39.25;;;15.75;;
26325;SDS011;14032;52.510;7.342;2023-02-18T06:19:42;37.17;;;13.77;;
26325;SDS011;14032;52.510;7.342;2023-02-18T06:22:08;34.58;;;14.02;;
26325;SDS011;14032;52.510;7.342;2023-02-18T06:24:34;31.65;;;14.35;;
26325;SDS011;14032;52.510;7.342;2023-02-18T06:27:02;30.75;;;13.55;;
26325;SDS011;14032;52.510;7.342;2023-02-18T06:29:28;31.10;;;13.48;;
26325;SDS011;14032;52.510;7.342;2023-02-18T06:31:55;31.52;;;13.60;;
26325;SDS011;14032;52.510;7.342;2023-02-18T06:34:21;29.27;;;13.02;;
26325;SDS011;14032;52.510;7.342;2023-02-18T06:36:46;28.25;;;11.68;;
26325;SDS011;14032;52.510;7.342;2023-02-18T06:39:12;25.92;;;11.40;;
26325;SDS011;14032;52.510;7.342;2023-02-18T06:41:38;19.42;;;9.90;;
26325;SDS011;14032;52.510;7.342;2023-02-18T06:44:04;25.30;;;10.73;;
26325;SDS011;14032;52.510;7.342;2023-02-18T06:46:30;19.70;;;9.20;;
26325;SDS011;14032;52.510;7.342;2023-02-18T06:48:55;18.23;;;9.05;;
26325;SDS011;14032;52.510;7.342;2023-02-18T06:51:22;17.60;;;8.70;;
26325;SDS011;14032;52.510;7.342;2023-02-18T06:53:47;21.83;;;8.63;;
26325;SDS011;14032;52.510;7.342;2023-02-18T06:56:13;16.20;;;7.95;;
26325;SDS011;14032;52.510;7.342;2023-02-18T06:58:39;14.25;;;7.55;;
26325;SDS011;14032;52.510;7.342;2023-02-18T07:01:04;13.55;;;6.60;;
26325;SDS011;14032;52.510;7.342;2023-02-18T07:03:30;11.80;;;5.95;;
26325;SDS011;14032;52.510;7.342;2023-02-18T07:05:56;12.18;;;5.70;;
26325;SDS011;14032;52.510;7.342;2023-02-18T07:08:22;11.02;;;5.70;;
26325;SDS011;14032;52.510;7.342;2023-02-18T07:10:48;12.88;;;6.13;;
26325;SDS011;14032;52.510;7.342;2023-02-18T07:13:13;10.65;;;5.30;;
26325;SDS011;14032;52.510;7.342;2023-02-18T07:15:39;13.60;;;5.53;;
26325;SDS011;14032;52.510;7.342;2023-02-18T07:18:05;10.50;;;5.57;;
26325;SDS011;14032;52.510;7.342;2023-02-18T07:20:31;9.65;;;5.60;;
26325;SDS011;14032;52.510;7.342;2023-02-18T07:22:57;8.05;;;5.30;;
26325;SDS011;14032;52.510;7.342;2023-02-18T07:25:23;10.43;;;5.78;;
26325;SDS011;14032;52.510;7.342;2023-02-18T07:27:49;11.27;;;5.82;;
26325;SDS011;14032;52.510;7.342;2023-02-18T07:30:15;9.07;;;5.40;;
26325;SDS011;14032;52.510;7.342;2023-02-18T07:32:41;11.43;;;5.65;;
26325;SDS011;14032;52.510;7.342;2023-02-18T07:35:10;9.13;;;5.88;;
26325;SDS011;14032;52.510;7.342;2023-02-18T07:37:38;9.25;;;5.60;;
26325;SDS011;14032;52.510;7.342;2023-02-18T07:40:04;10.73;;;6.13;;
26325;SDS011;14032;52.510;7.342;2023-02-18T07:42:30;9.07;;;5.78;;
26325;SDS011;14032;52.510;7.342;2023-02-18T07:44:56;9.32;;;5.47;;
26325;SDS011;14032;52.510;7.342;2023-02-18T07:47:22;7.90;;;5.70;;
26325;SDS011;14032;52.510;7.342;2023-02-18T07:49:48;8.45;;;5.30;;
26325;SDS011;14032;52.510;7.342;2023-02-18T07:52:14;8.38;;;5.70;;
26325;SDS011;14032;52.510;7.342;2023-02-18T07:54:41;8.50;;;6.10;;
26325;SDS011;14032;52.510;7.342;2023-02-18T07:57:07;8.18;;;5.57;;
26325;SDS011;14032;52.510;7.342;2023-02-18T07:59:32;8.30;;;5.65;;
26325;SDS011;14032;52.510;7.342;2023-02-18T08:01:58;8.70;;;5.85;;
26325;SDS011;14032;52.510;7.342;2023-02-18T08:04:23;11.68;;;5.65;;
26325;SDS011;14032;52.510;7.342;2023-02-18T08:06:49;8.43;;;5.82;;
26325;SDS011;14032;52.510;7.342;2023-02-18T08:09:15;7.50;;;5.25;;
26325;SDS011;14032;52.510;7.342;2023-02-18T08:11:42;7.97;;;5.47;;
26325;SDS011;14032;52.510;7.342;2023-02-18T08:14:08;8.15;;;5.63;;
26325;SDS011;14032;52.510;7.342;2023-02-18T08:16:34;9.07;;;6.05;;
26325;SDS011;14032;52.510;7.342;2023-02-18T08:19:00;8.88;;;6.25;;
26325;SDS011;14032;52.510;7.342;2023-02-18T08:21:27;15.73;;;8.00;;
26325;SDS011;14032;52.510;7.342;2023-02-18T08:23:53;11.80;;;7.68;;
26325;SDS011;14032;52.510;7.342;2023-02-18T08:26:19;16.73;;;8.63;;
26325;SDS011;14032;52.510;7.342;2023-02-18T08:28:46;18.90;;;9.60;;
26325;SDS011;14032;52.510;7.342;2023-02-18T08:31:19;13.07;;;9.07;;
26325;SDS011;14032;52.510;7.342;2023-02-18T08:33:52;17.48;;;9.48;;
26325;SDS011;14032;52.510;7.342;2023-02-18T08:36:19;17.20;;;10.45;;
26325;SDS011;14032;52.510;7.342;2023-02-18T08:38:45;20.65;;;11.95;;
26325;SDS011;14032;52.510;7.342;2023-02-18T08:41:10;18.80;;;12.10;;
26325;SDS011;14032;52.510;7.342;2023-02-18T08:43:38;18.17;;;12.07;;
26325;SDS011;14032;52.510;7.342;2023-02-18T08:46:04;22.65;;;13.20;;
26325;SDS011;14032;52.510;7.342;2023-02-18T08:48:30;21.80;;;14.35;;
26325;SDS011;14032;52.510;7.342;2023-02-18T08:50:56;20.30;;;14.25;;
26325;SDS011;14032;52.510;7.342;2023-02-18T08:53:22;22.33;;;13.98;;
26325;SDS011;14032;52.510;7.342;2023-02-18T08:55:48;29.02;;;16.25;;
26325;SDS011;14032;52.510;7.342;2023-02-18T08:58:13;26.42;;;17.23;;
26325;SDS011;14032;52.510;7.342;2023-02-18T09:00:39;29.08;;;16.35;;
26325;SDS011;14032;52.510;7.342;2023-02-18T09:03:06;26.83;;;16.80;;
26325;SDS011;14032;52.510;7.342;2023-02-18T09:05:31;30.45;;;16.20;;
26325;SDS011;14032;52.510;7.342;2023-02-18T09:07:57;25.73;;;13.80;;
26325;SDS011;14032;52.510;7.342;2023-02-18T09:10:23;22.40;;;12.93;;
26325;SDS011;14032;52.510;7.342;2023-02-18T09:12:49;21.25;;;12.88;;
26325;SDS011;14032;52.510;7.342;2023-02-18T09:15:14;19.67;;;12.02;;
26325;SDS011;14032;52.510;7.342;2023-02-18T09:17:41;18.15;;;11.00;;
26325;SDS011;14032;52.510;7.342;2023-02-18T09:20:06;16.52;;;10.45;;
26325;SDS011;14032;52.510;7.342;2023-02-18T09:22:32;13.73;;;9.48;;
26325;SDS011;14032;52.510;7.342;2023-02-18T09:24:58;17.33;;;9.15;;
26325;SDS011;14032;52.510;7.342;2023-02-18T09:27:24;17.00;;;8.93;;
26325;SDS011;14032;52.510;7.342;2023-02-18T09:29:50;15.77;;;9.25;;
26325;SDS011;14032;52.510;7.342;2023-02-18T09:32:16;13.57;;;8.60;;
26325;SDS011;14032;52.510;7.342;2023-02-18T09:34:42;15.48;;;8.60;;
26325;SDS011;14032;52.510;7.342;2023-02-18T09:37:08;16.10;;;8.90;;
26325;SDS011;14032;52.510;7.342;2023-02-18T09:39:35;17.58;;;8.45;;
26325;SDS011;14032;52.510;7.342;2023-02-18T09:42:02;17.15;;;8.82;;
26325;SDS011;14032;52.510;7.342;2023-02-18T09:44:33;16.55;;;9.18;;
26325;SDS011;14032;52.510;7.342;2023-02-18T09:49:43;17.15;;;8.95;;
26325;SDS011;14032;52.510;7.342;2023-02-18T09:57:53;18.05;;;9.80;;
26325;SDS011;14032;52.510;7.342;2023-02-18T10:00:24;19.17;;;9.38;;
26325;SDS011;14032;52.510;7.342;2023-02-18T10:03:15;16.60;;;9.02;;
26325;SDS011;14032;52.510;7.342;2023-02-18T10:05:55;16.67;;;9.90;;
26325;SDS011;14032;52.510;7.342;2023-02-18T10:08:28;18.70;;;8.90;;
26325;SDS011;14032;52.510;7.342;2023-02-18T10:10:57;15.18;;;8.48;;
26325;SDS011;14032;52.510;7.342;2023-02-18T10:13:24;16.52;;;9.65;;
26325;SDS011;14032;52.510;7.342;2023-02-18T10:15:53;16.15;;;9.20;;
26325;SDS011;14032;52.510;7.342;2023-02-18T10:18:20;21.27;;;11.40;;
26325;SDS011;14032;52.510;7.342;2023-02-18T10:20:52;17.20;;;9.48;;
26325;SDS011;14032;52.510;7.342;2023-02-18T10:24:28;15.25;;;8.85;;
26325;SDS011;14032;52.510;7.342;2023-02-18T10:26:28;13.27;;;6.85;;
26325;SDS011;14032;52.510;7.342;2023-02-18T10:28:56;11.23;;;6.18;;
26325;SDS011;14032;52.510;7.342;2023-02-18T10:31:24;19.70;;;6.43;;
26325;SDS011;14032;52.510;7.342;2023-02-18T10:33:59;15.95;;;5.93;;
26325;SDS011;14032;52.510;7.342;2023-02-18T10:36:53;12.85;;;5.90;;
26325;SDS011;14032;52.510;7.342;2023-02-18T10:45:27;12.88;;;5.80;;
26325;SDS011;14032;52.510;7.342;2023-02-18T10:50:39;10.55;;;5.63;;
26325;SDS011;14032;52.510;7.342;2023-02-18T10:53:15;17.20;;;5.57;;
26325;SDS011;14032;52.510;7.342;2023-02-18T10:56:02;14.48;;;5.15;;
26325;SDS011;14032;52.510;7.342;2023-02-18T10:58:34;9.13;;;5.32;;
26325;SDS011;14032;52.510;7.342;2023-02-18T11:01:05;11.73;;;5.28;;
26325;SDS011;14032;52.510;7.342;2023-02-18T11:03:38;14.68;;;5.53;;
26325;SDS011;14032;52.510;7.342;2023-02-18T11:06:26;11.07;;;5.10;;
26325;SDS011;14032;52.510;7.342;2023-02-18T11:09:19;13.27;;;5.07;;
26325;SDS011;14032;52.510;7.342;2023-02-18T11:12:00;10.60;;;4.90;;
26325;SDS011;14032;52.510;7.342;2023-02-18T11:15:34;15.68;;;5.95;;
26325;SDS011;14032;52.510;7.342;2023-02-18T11:17:35;20.60;;;6.15;;
26325;SDS011;14032;52.510;7.342;2023-02-18T11:20:24;16.27;;;7.90;;
26325;SDS011;14032;52.510;7.342;2023-02-18T11:22:59;18.08;;;6.25;;
26325;SDS011;14032;52.510;7.342;2023-02-18T11:25:37;19.23;;;6.97;;
26325;SDS011;14032;52.510;7.342;2023-02-18T11:28:06;18.45;;;6.82;;
26325;SDS011;14032;52.510;7.342;2023-02-18T11:30:47;18.40;;;6.20;;
26325;SDS011;14032;52.510;7.342;2023-02-18T11:33:23;20.88;;;6.30;;
26325;SDS011;14032;52.510;7.342;2023-02-18T11:39:03;26.25;;;7.68;;
26325;SDS011;14032;52.510;7.342;2023-02-18T11:41:36;17.38;;;6.38;;
26325;SDS011;14032;52.510;7.342;2023-02-18T11:44:27;22.85;;;6.60;;
26325;SDS011;14032;52.510;7.342;2023-02-18T11:46:57;26.83;;;6.72;;
26325;SDS011;14032;52.510;7.342;2023-02-18T11:49:26;21.02;;;6.13;;
26325;SDS011;14032;52.510;7.342;2023-02-18T11:51:54;18.15;;;6.35;;
26325;SDS011;14032;52.510;7.342;2023-02-18T11:54:28;25.25;;;6.72;;
26325;SDS011;14032;52.510;7.342;2023-02-18T11:59:32;20.42;;;6.40;;
26325;SDS011;14032;52.510;7.342;2023-02-18T12:04:44;23.38;;;6.30;;
26325;SDS011;14032;52.510;7.342;2023-02-18T12:10:11;25.80;;;6.40;;
26325;SDS011;14032;52.510;7.342;2023-02-18T12:12:52;29.05;;;6.57;;
26325;SDS011;14032;52.510;7.342;2023-02-18T12:15:25;23.23;;;6.47;;
26325;SDS011;14032;52.510;7.342;2023-02-18T12:20:57;16.17;;;6.22;;
26325;SDS011;14032;52.510;7.342;2023-02-18T12:26:22;25.23;;;7.43;;
26325;SDS011;14032;52.510;7.342;2023-02-18T12:40:02;29.83;;;9.90;;
26325;SDS011;14032;52.510;7.342;2023-02-18T12:50:56;33.25;;;6.80;;
26325;SDS011;14032;52.510;7.342;2023-02-18T12:53:37;20.48;;;5.97;;
26325;SDS011;14032;52.510;7.342;2023-02-18T12:56:33;23.65;;;5.72;;
26325;SDS011;14032;52.510;7.342;2023-02-18T12:59:06;19.00;;;5.75;;
26325;SDS011;14032;52.510;7.342;2023-02-18T13:01:50;22.48;;;4.60;;
26325;SDS011;14032;52.510;7.342;2023-02-18T13:17:59;17.27;;;4.40;;
26325;SDS011;14032;52.510;7.342;2023-02-18T13:23:34;16.52;;;4.28;;
26325;SDS011;14032;52.510;7.342;2023-02-18T13:26:13;12.93;;;4.35;;
26325;SDS011;14032;52.510;7.342;2023-02-18T13:31:33;15.35;;;4.38;;
26325;SDS011;14032;52.510;7.342;2023-02-18T13:34:27;17.95;;;4.38;;
26325;SDS011;14032;52.510;7.342;2023-02-18T13:39:44;16.48;;;3.78;;
26325;SDS011;14032;52.510;7.342;2023-02-18T13:52:56;10.93;;;3.45;;
26325;SDS011;14032;52.510;7.342;2023-02-18T13:55:34;13.45;;;3.50;;
26325;SDS011;14032;52.510;7.342;2023-02-18T14:01:38;17.38;;;3.58;;
26325;SDS011;14032;52.510;7.342;2023-02-18T14:09:49;11.23;;;3.15;;
26325;SDS011;14032;52.510;7.342;2023-02-18T14:14:48;11.00;;;3.47;;
26325;SDS011;14032;52.510;7.342;2023-02-18T14:19:52;14.15;;;3.40;;
26325;SDS011;14032;52.510;7.342;2023-02-18T14:22:25;12.75;;;3.92;;
26325;SDS011;14032;52.510;7.342;2023-02-18T14:27:36;9.02;;;2.40;;
26325;SDS011;14032;52.510;7.342;2023-02-18T14:30:06;14.88;;;3.85;;
26325;SDS011;14032;52.510;7.342;2023-02-18T14:32:43;10.73;;;3.20;;
26325;SDS011;14032;52.510;7.342;2023-02-18T14:37:54;14.13;;;3.58;;
26325;SDS011;14032;52.510;7.342;2023-02-18T14:40:51;14.93;;;3.20;;
26325;SDS011;14032;52.510;7.342;2023-02-18T14:51:43;11.68;;;3.63;;
26325;SDS011;14032;52.510;7.342;2023-02-18T14:54:13;16.40;;;4.03;;
26325;SDS011;14032;52.510;7.342;2023-02-18T14:56:53;17.67;;;3.65;;
26325;SDS011;14032;52.510;7.342;2023-02-18T14:59:35;14.48;;;3.20;;
26325;SDS011;14032;52.510;7.342;2023-02-18T15:02:13;22.05;;;3.30;;
26325;SDS011;14032;52.510;7.342;2023-02-18T15:04:45;13.93;;;3.10;;
26325;SDS011;14032;52.510;7.342;2023-02-18T15:07:13;12.75;;;3.30;;
26325;SDS011;14032;52.510;7.342;2023-02-18T15:09:46;14.38;;;3.75;;
26325;SDS011;14032;52.510;7.342;2023-02-18T15:12:14;12.93;;;3.15;;
26325;SDS011;14032;52.510;7.342;2023-02-18T15:14:44;17.10;;;3.55;;
26325;SDS011;14032;52.510;7.342;2023-02-18T15:17:16;11.93;;;3.03;;
26325;SDS011;14032;52.510;7.342;2023-02-18T15:19:48;14.90;;;3.47;;
26325;SDS011;14032;52.510;7.342;2023-02-18T15:22:23;19.15;;;4.13;;
26325;SDS011;14032;52.510;7.342;2023-02-18T15:24:51;15.95;;;3.70;;
26325;SDS011;14032;52.510;7.342;2023-02-18T15:27:22;14.50;;;3.20;;
26325;SDS011;14032;52.510;7.342;2023-02-18T15:30:12;12.90;;;3.10;;
26325;SDS011;14032;52.510;7.342;2023-02-18T15:32:44;17.17;;;3.10;;
26325;SDS011;14032;52.510;7.342;2023-02-18T15:35:18;8.75;;;2.83;;
26325;SDS011;14032;52.510;7.342;2023-02-18T15:37:51;15.70;;;3.40;;
26325;SDS011;14032;52.510;7.342;2023-02-18T15:40:18;18.95;;;3.30;;
26325;SDS011;14032;52.510;7.342;2023-02-18T15:42:47;9.98;;;3.00;;
26325;SDS011;14032;52.510;7.342;2023-02-18T15:47:43;11.38;;;2.92;;
26325;SDS011;14032;52.510;7.342;2023-02-18T15:50:18;14.43;;;3.20;;
26325;SDS011;14032;52.510;7.342;2023-02-18T15:52:46;17.85;;;3.17;;
26325;SDS011;14032;52.510;7.342;2023-02-18T15:55:15;15.75;;;3.75;;
26325;SDS011;14032;52.510;7.342;2023-02-18T15:57:49;17.23;;;3.42;;
26325;SDS011;14032;52.510;7.342;2023-02-18T16:00:19;12.43;;;3.30;;
26325;SDS011;14032;52.510;7.342;2023-02-18T16:03:03;16.40;;;3.92;;
26325;SDS011;14032;52.510;7.342;2023-02-18T16:05:35;14.63;;;3.45;;
26325;SDS011;14032;52.510;7.342;2023-02-18T16:08:13;19.42;;;4.32;;
26325;SDS011;14032;52.510;7.342;2023-02-18T16:10:52;16.75;;;3.92;;
26325;SDS011;14032;52.510;7.342;2023-02-18T16:13:21;20.13;;;5.13;;
26325;SDS011;14032;52.510;7.342;2023-02-18T16:15:48;15.68;;;3.40;;
26325;SDS011;14032;52.510;7.342;2023-02-18T16:18:26;16.00;;;3.88;;
26325;SDS011;14032;52.510;7.342;2023-02-18T16:21:03;16.00;;;3.90;;
26325;SDS011;14032;52.510;7.342;2023-02-18T16:23:56;18.83;;;3.78;;
26325;SDS011;14032;52.510;7.342;2023-02-18T16:29:12;14.45;;;4.50;;
26325;SDS011;14032;52.510;7.342;2023-02-18T16:31:40;15.70;;;4.15;;
26325;SDS011;14032;52.510;7.342;2023-02-18T16:34:06;15.90;;;3.35;;
26325;SDS011;14032;52.510;7.342;2023-02-18T16:36:33;14.45;;;2.80;;
26325;SDS011;14032;52.510;7.342;2023-02-18T16:39:00;17.25;;;3.30;;
26325;SDS011;14032;52.510;7.342;2023-02-18T16:41:26;17.48;;;3.60;;
26325;SDS011;14032;52.510;7.342;2023-02-18T16:43:52;15.50;;;3.47;;
26325;SDS011;14032;52.510;7.342;2023-02-18T16:46:20;15.50;;;3.35;;
26325;SDS011;14032;52.510;7.342;2023-02-18T16:48:50;16.33;;;3.58;;
26325;SDS011;14032;52.510;7.342;2023-02-18T16:51:20;19.65;;;3.92;;
26325;SDS011;14032;52.510;7.342;2023-02-18T16:53:53;14.23;;;3.53;;
26325;SDS011;14032;52.510;7.342;2023-02-18T16:56:23;18.65;;;3.75;;
26325;SDS011;14032;52.510;7.342;2023-02-18T16:58:50;12.75;;;3.22;;
26325;SDS011;14032;52.510;7.342;2023-02-18T17:01:20;16.05;;;4.13;;
26325;SDS011;14032;52.510;7.342;2023-02-18T17:03:47;18.05;;;3.38;;
26325;SDS011;14032;52.510;7.342;2023-02-18T17:06:13;14.23;;;3.15;;
26325;SDS011;14032;52.510;7.342;2023-02-18T17:08:39;17.48;;;3.40;;
26325;SDS011;14032;52.510;7.342;2023-02-18T17:11:05;19.15;;;3.60;;
26325;SDS011;14032;52.510;7.342;2023-02-18T17:13:30;17.23;;;3.67;;
26325;SDS011;14032;52.510;7.342;2023-02-18T17:15:57;15.50;;;3.08;;
26325;SDS011;14032;52.510;7.342;2023-02-18T17:18:23;21.40;;;4.82;;
26325;SDS011;14032;52.510;7.342;2023-02-18T17:20:51;12.57;;;3.63;;
26325;SDS011;14032;52.510;7.342;2023-02-18T17:23:18;19.27;;;3.78;;
26325;SDS011;14032;52.510;7.342;2023-02-18T17:25:48;23.13;;;4.10;;
26325;SDS011;14032;52.510;7.342;2023-02-18T17:28:14;18.38;;;4.28;;